createdAt,value
2022-08-23T00:02:23.599Z,14.65
2022-08-23T00:05:03.486Z,14.82
2022-08-23T00:07:38.744Z,15.45
2022-08-23T00:10:06.822Z,15.43
2022-08-23T00:12:34.138Z,15.35
2022-08-23T00:15:01.467Z,14.60
2022-08-23T00:17:31.120Z,15.60
2022-08-23T00:20:02.117Z,15.52
2022-08-23T00:22:29.422Z,14.90
2022-08-23T00:24:56.709Z,14.93
2022-08-23T00:27:24.075Z,15.15
2022-08-23T00:29:52.403Z,15.80
2022-08-23T00:32:24.986Z,15.43
2022-08-23T00:34:52.908Z,14.82
2022-08-23T00:37:20.209Z,14.90
2022-08-23T00:39:47.774Z,14.73
2022-08-23T00:42:42.852Z,14.10
2022-08-23T00:45:29.761Z,14.07
2022-08-23T00:47:58.017Z,14.65
2022-08-23T00:50:35.741Z,14.93
2022-08-23T00:53:11.761Z,14.35
2022-08-23T00:55:40.348Z,14.32
2022-08-23T00:58:08.715Z,14.27
2022-08-23T01:00:36.192Z,13.95
2022-08-23T01:03:07.218Z,15.30
2022-08-23T01:08:02.488Z,13.15
2022-08-23T01:10:42.244Z,12.88
2022-08-23T01:13:14.972Z,12.82
2022-08-23T01:15:44.347Z,12.82
2022-08-23T01:18:14.111Z,12.77
2022-08-23T01:21:00.051Z,12.65
2022-08-23T01:23:42.429Z,12.98
2022-08-23T01:26:10.960Z,13.07
2022-08-23T01:28:41.011Z,13.45
2022-08-23T01:31:13.791Z,12.20
2022-08-23T01:33:42.086Z,13.02
2022-08-23T01:36:11.576Z,12.48
2022-08-23T01:38:39.007Z,12.35
2022-08-23T01:41:07.079Z,13.30
2022-08-23T01:43:34.529Z,12.05
2022-08-23T01:46:10.047Z,11.85
2022-08-23T01:48:37.430Z,12.00
2022-08-23T01:51:04.848Z,11.05
2022-08-23T01:53:32.581Z,11.60
2022-08-23T01:56:01.689Z,11.20
2022-08-23T01:58:30.372Z,11.80
2022-08-23T02:00:57.972Z,11.15
2022-08-23T02:03:25.507Z,11.65
2022-08-23T02:08:43.634Z,11.60
2022-08-23T02:11:15.955Z,11.30
2022-08-23T02:13:44.122Z,12.20
2022-08-23T02:16:14.854Z,11.55
2022-08-23T02:18:42.493Z,12.20
2022-08-23T02:21:10.577Z,12.30
2022-08-23T02:23:37.931Z,12.50
2022-08-23T02:26:06.997Z,11.82
2022-08-23T02:28:34.318Z,12.38
2022-08-23T02:31:01.670Z,13.38
2022-08-23T02:33:29.746Z,12.30
2022-08-23T02:35:57.091Z,12.65
2022-08-23T02:38:24.429Z,13.02
2022-08-23T02:41:01.051Z,12.25
2022-08-23T02:43:28.590Z,12.27
2022-08-23T02:45:55.893Z,12.00
2022-08-23T02:48:23.221Z,12.50
2022-08-23T02:50:50.558Z,12.75
2022-08-23T02:53:18.176Z,12.93
2022-08-23T02:55:46.150Z,11.77
2022-08-23T02:58:13.580Z,11.65
2022-08-23T03:00:41.045Z,10.93
2022-08-23T03:03:08.382Z,10.68
2022-08-23T03:05:35.737Z,10.52
2022-08-23T03:08:03.313Z,11.35
2022-08-23T03:10:31.277Z,10.80
2022-08-23T03:12:58.625Z,10.82
2022-08-23T03:15:25.994Z,10.70
2022-08-23T03:17:53.570Z,10.65
2022-08-23T03:20:20.995Z,11.23
2022-08-23T03:22:54.734Z,10.82
2022-08-23T03:25:22.782Z,10.07
2022-08-23T03:27:50.070Z,10.70
2022-08-23T03:30:19.962Z,11.05
2022-08-23T03:32:48.992Z,11.10
2022-08-23T03:35:16.886Z,10.50
2022-08-23T03:37:44.176Z,9.95
2022-08-23T03:40:11.899Z,10.48
2022-08-23T03:42:39.321Z,9.77
2022-08-23T03:45:06.834Z,10.10
2022-08-23T03:47:34.576Z,10.07
2022-08-23T03:50:01.900Z,10.80
2022-08-23T03:52:29.235Z,10.30
2022-08-23T03:54:56.662Z,10.40
2022-08-23T03:57:23.981Z,10.30
2022-08-23T03:59:51.273Z,9.90
2022-08-23T04:02:18.580Z,10.23
2022-08-23T04:04:45.891Z,9.35
2022-08-23T04:07:13.202Z,9.55
2022-08-23T04:09:40.562Z,10.07
2022-08-23T04:12:17.545Z,9.07
2022-08-23T04:14:45.822Z,9.30
2022-08-23T04:17:17.850Z,9.30
2022-08-23T04:19:45.179Z,8.40
2022-08-23T04:22:13.902Z,8.55
2022-08-23T04:24:42.110Z,8.73
2022-08-23T04:27:09.791Z,8.80
2022-08-23T04:29:39.160Z,8.25
2022-08-23T04:32:07.794Z,8.02
2022-08-23T04:34:40.350Z,8.27
2022-08-23T04:37:09.433Z,8.02
2022-08-23T04:39:56.411Z,8.25
2022-08-23T04:42:23.835Z,7.72
2022-08-23T04:44:51.330Z,8.07
2022-08-23T04:47:20.023Z,7.45
2022-08-23T04:49:47.351Z,8.38
2022-08-23T04:52:19.011Z,7.65
2022-08-23T04:54:46.961Z,6.63
2022-08-23T04:57:15.564Z,6.63
2022-08-23T04:59:43.335Z,5.88
2022-08-23T05:02:10.664Z,6.75
2022-08-23T05:04:37.990Z,6.70
2022-08-23T05:07:05.366Z,6.03
2022-08-23T05:09:32.655Z,6.57
2022-08-23T05:11:59.955Z,6.28
2022-08-23T05:14:27.238Z,5.90
2022-08-23T05:16:54.586Z,5.75
2022-08-23T05:19:21.879Z,6.10
2022-08-23T05:21:50.478Z,5.72
2022-08-23T05:24:19.266Z,5.85
2022-08-23T05:26:46.577Z,5.88
2022-08-23T05:29:13.902Z,5.57
2022-08-23T05:31:41.246Z,5.55
2022-08-23T05:34:08.707Z,5.50
2022-08-23T05:36:36.080Z,5.45
2022-08-23T05:39:03.487Z,5.30
2022-08-23T05:41:38.238Z,4.53
2022-08-23T05:44:05.918Z,5.68
2022-08-23T05:46:33.854Z,5.70
2022-08-23T05:49:01.698Z,5.35
2022-08-23T05:51:30.435Z,5.72
2022-08-23T05:53:59.224Z,5.28
2022-08-23T05:56:28.117Z,5.15
2022-08-23T05:59:00.067Z,5.90
2022-08-23T06:01:28.234Z,5.70
2022-08-23T06:03:55.577Z,5.03
2022-08-23T06:06:22.941Z,4.95
2022-08-23T06:09:03.831Z,4.95
2022-08-23T06:11:31.384Z,5.10
2022-08-23T06:14:00.177Z,4.70
2022-08-23T06:16:31.889Z,4.85
2022-08-23T06:19:00.012Z,4.47
2022-08-23T06:21:27.959Z,4.82
2022-08-23T06:23:55.679Z,4.40
2022-08-23T06:26:31.436Z,4.40
2022-08-23T06:29:00.091Z,4.00
2022-08-23T06:31:46.627Z,4.50
2022-08-23T06:34:25.522Z,4.72
2022-08-23T06:36:57.229Z,4.15
2022-08-23T06:39:26.082Z,4.03
2022-08-23T06:41:53.910Z,4.03
2022-08-23T06:44:21.279Z,4.85
2022-08-23T06:46:49.484Z,3.50
2022-08-23T06:49:17.288Z,3.83
2022-08-23T06:51:46.021Z,4.75
2022-08-23T06:54:14.556Z,4.53
2022-08-23T06:56:42.722Z,4.45
2022-08-23T06:59:12.279Z,4.40
2022-08-23T07:01:45.692Z,4.40
2022-08-23T07:04:14.755Z,4.28
2022-08-23T07:06:42.170Z,6.40
2022-08-23T07:09:09.477Z,6.82
2022-08-23T07:11:37.119Z,5.68
2022-08-23T07:14:06.648Z,4.63
2022-08-23T07:16:35.488Z,4.38
2022-08-23T07:19:02.903Z,4.00
2022-08-23T07:21:31.707Z,4.40
2022-08-23T07:23:59.034Z,4.55
2022-08-23T07:26:26.387Z,5.43
2022-08-23T07:28:57.231Z,5.75
2022-08-23T07:31:30.565Z,6.35
2022-08-23T07:34:02.350Z,5.90
2022-08-23T07:36:30.835Z,5.30
2022-08-23T07:38:58.649Z,5.43
2022-08-23T07:41:32.777Z,5.55
2022-08-23T07:44:03.829Z,6.65
2022-08-23T07:46:31.830Z,5.78
2022-08-23T07:49:00.175Z,5.70
2022-08-23T07:51:28.194Z,5.68
2022-08-23T07:53:55.533Z,4.80
2022-08-23T07:56:23.168Z,5.15
2022-08-23T07:58:50.578Z,3.78
2022-08-23T08:01:27.827Z,4.95
2022-08-23T08:03:56.838Z,4.47
2022-08-23T08:06:29.348Z,6.47
2022-08-23T08:08:56.800Z,5.45
2022-08-23T08:11:25.398Z,3.60
2022-08-23T08:13:52.738Z,6.18
2022-08-23T08:16:24.593Z,4.28
2022-08-23T08:18:52.548Z,3.47
2022-08-23T08:21:20.116Z,3.78
2022-08-23T08:23:47.456Z,3.33
2022-08-23T08:26:14.816Z,4.38
2022-08-23T08:28:42.164Z,3.65
2022-08-23T08:31:10.100Z,3.35
2022-08-23T08:33:37.514Z,3.95
2022-08-23T08:36:05.551Z,3.78
2022-08-23T08:38:36.848Z,3.92
2022-08-23T08:41:17.407Z,3.80
2022-08-23T08:43:59.073Z,4.25
2022-08-23T08:46:32.299Z,4.22
2022-08-23T08:49:01.350Z,3.78
2022-08-23T08:51:47.351Z,4.60
2022-08-23T08:54:17.574Z,3.83
2022-08-23T08:56:46.276Z,4.65
2022-08-23T08:59:20.987Z,3.95
2022-08-23T09:01:48.678Z,3.70
2022-08-23T09:04:16.150Z,3.55
2022-08-23T09:06:53.477Z,3.30
2022-08-23T09:09:40.400Z,3.60
2022-08-23T09:12:26.889Z,3.60
2022-08-23T09:15:00.133Z,3.60
2022-08-23T09:17:27.485Z,3.00
2022-08-23T09:19:57.492Z,3.67
2022-08-23T09:22:38.848Z,2.75
2022-08-23T09:25:07.979Z,3.00
2022-08-23T09:27:43.135Z,2.55
2022-08-23T09:30:11.310Z,2.85
2022-08-23T09:32:39.942Z,2.80
2022-08-23T09:35:18.638Z,3.20
2022-08-23T09:38:06.777Z,3.05
2022-08-23T09:40:34.181Z,3.05
2022-08-23T09:43:07.367Z,2.95
2022-08-23T09:45:39.135Z,2.85
2022-08-23T09:48:07.593Z,3.67
2022-08-23T09:50:40.026Z,3.40
2022-08-23T09:53:09.095Z,2.78
2022-08-23T09:55:43.505Z,3.10
2022-08-23T09:58:18.820Z,2.58
2022-08-23T10:01:06.067Z,2.40
2022-08-23T10:03:33.441Z,2.70
2022-08-23T10:06:01.573Z,3.10
2022-08-23T10:08:32.953Z,2.80
2022-08-23T10:11:06.010Z,3.00
2022-08-23T10:13:36.099Z,3.10
2022-08-23T10:16:03.442Z,3.30
2022-08-23T10:18:30.749Z,3.22
2022-08-23T10:21:10.362Z,3.10
2022-08-23T10:23:48.380Z,3.30
2022-08-23T10:26:23.026Z,2.67
2022-08-23T10:29:22.732Z,3.45
2022-08-23T10:32:02.038Z,3.40
2022-08-23T10:34:32.309Z,3.63
2022-08-23T10:39:27.978Z,3.03
2022-08-23T10:42:01.739Z,2.45
2022-08-23T10:44:41.249Z,2.80
2022-08-23T10:47:31.109Z,2.20
2022-08-23T10:50:01.169Z,2.80
2022-08-23T10:52:31.980Z,2.47
2022-08-23T10:55:01.228Z,3.35
2022-08-23T10:57:34.379Z,2.97
2022-08-23T11:00:02.840Z,2.70
2022-08-23T11:02:35.761Z,2.58
2022-08-23T11:05:05.801Z,2.55
2022-08-23T11:07:42.988Z,2.83
2022-08-23T11:10:17.715Z,2.80
2022-08-23T11:13:01.528Z,2.97
2022-08-23T11:15:49.296Z,2.75
2022-08-23T11:18:36.740Z,3.13
2022-08-23T11:21:19.451Z,2.90
2022-08-23T11:23:46.759Z,3.40
2022-08-23T11:26:23.368Z,3.50
2022-08-23T11:28:51.746Z,3.10
2022-08-23T11:31:22.475Z,3.15
2022-08-23T11:33:49.883Z,3.40
2022-08-23T11:36:22.418Z,3.35
2022-08-23T11:38:49.995Z,3.28
2022-08-23T11:41:20.333Z,3.35
2022-08-23T11:43:47.774Z,3.90
2022-08-23T11:46:26.919Z,3.20
2022-08-23T11:49:12.274Z,3.50
2022-08-23T11:51:42.726Z,3.08
2022-08-23T11:54:16.067Z,3.30
2022-08-23T11:57:12.756Z,3.38
2022-08-23T11:59:42.820Z,3.42
2022-08-23T12:02:32.295Z,4.13
2022-08-23T12:05:02.223Z,3.65
2022-08-23T12:07:53.186Z,2.92
2022-08-23T12:10:46.488Z,3.60
2022-08-23T12:13:19.905Z,3.88
2022-08-23T12:16:16.981Z,3.70
2022-08-23T12:18:48.076Z,2.97
2022-08-23T12:21:21.987Z,3.42
2022-08-23T12:23:51.605Z,3.80
2022-08-23T12:26:37.781Z,3.63
2022-08-23T12:29:08.042Z,3.70
2022-08-23T12:31:58.603Z,3.55
2022-08-23T12:34:41.193Z,3.72
2022-08-23T12:37:14.508Z,3.67
2022-08-23T12:39:55.249Z,3.90
2022-08-23T12:42:27.775Z,3.90
2022-08-23T12:45:13.479Z,3.80
2022-08-23T12:47:44.377Z,3.03
2022-08-23T12:50:12.345Z,3.05
2022-08-23T12:52:39.759Z,3.65
2022-08-23T12:55:18.621Z,3.67
2022-08-23T12:57:54.471Z,3.35
2022-08-23T13:00:23.934Z,3.40
2022-08-23T13:03:11.404Z,3.30
2022-08-23T13:05:44.281Z,5.00
2022-08-23T13:08:14.749Z,4.40
2022-08-23T13:10:43.341Z,2.80
2022-08-23T13:13:15.324Z,3.33
2022-08-23T13:15:50.745Z,3.70
2022-08-23T13:18:32.278Z,2.90
2022-08-23T13:21:18.570Z,2.72
2022-08-23T13:23:47.926Z,3.20
2022-08-23T13:26:27.579Z,2.80
2022-08-23T13:29:21.286Z,3.50
2022-08-23T13:31:49.437Z,3.50
2022-08-23T13:34:33.206Z,3.60
2022-08-23T13:37:01.427Z,3.80
2022-08-23T13:39:30.846Z,3.50
2022-08-23T13:41:58.511Z,3.30
2022-08-23T13:44:26.315Z,3.47
2022-08-23T13:46:53.682Z,4.13
2022-08-23T13:49:23.215Z,3.42
2022-08-23T13:52:18.387Z,3.92
2022-08-23T13:54:51.235Z,4.15
2022-08-23T13:57:20.776Z,3.60
2022-08-23T13:59:55.549Z,3.50
2022-08-23T14:02:23.932Z,4.22
2022-08-23T14:04:51.656Z,3.25
2022-08-23T14:07:19.408Z,4.38
2022-08-23T14:09:46.829Z,3.83
2022-08-23T14:12:18.932Z,3.55
2022-08-23T14:14:46.757Z,3.80
2022-08-23T14:17:15.808Z,4.32
2022-08-23T14:22:34.156Z,4.18
2022-08-23T14:25:01.474Z,3.92
2022-08-23T14:27:28.755Z,4.07
2022-08-23T14:29:56.148Z,3.90
2022-08-23T14:32:23.445Z,3.42
2022-08-23T14:34:51.325Z,3.88
2022-08-23T14:38:02.813Z,4.28
2022-08-23T14:40:06.614Z,3.97
2022-08-23T14:42:34.029Z,4.55
2022-08-23T14:45:01.338Z,4.85
2022-08-23T14:47:29.306Z,4.53
2022-08-23T14:49:56.619Z,4.45
2022-08-23T14:52:24.182Z,4.65
2022-08-23T14:54:51.495Z,4.82
2022-08-23T14:57:18.834Z,4.20
2022-08-23T14:59:46.199Z,4.53
2022-08-23T15:02:14.475Z,5.65
2022-08-23T15:04:42.381Z,5.53
2022-08-23T15:07:18.707Z,4.38
2022-08-23T15:09:50.337Z,4.80
2022-08-23T15:15:12.104Z,4.88
2022-08-23T15:17:44.417Z,4.53
2022-08-23T15:20:11.810Z,4.68
2022-08-23T15:22:44.497Z,5.18
2022-08-23T15:25:12.835Z,4.82
2022-08-23T15:27:40.221Z,5.32
2022-08-23T15:30:07.746Z,4.97
2022-08-23T15:32:35.082Z,6.18
2022-08-23T15:35:05.048Z,4.78
2022-08-23T15:37:32.712Z,4.68
2022-08-23T15:40:00.304Z,6.20
2022-08-23T15:42:27.821Z,5.45
2022-08-23T15:44:55.141Z,4.88
2022-08-23T15:47:27.295Z,5.05
2022-08-23T15:49:55.842Z,5.45
2022-08-23T15:52:23.203Z,5.45
2022-08-23T15:54:50.624Z,4.70
2022-08-23T15:57:20.304Z,4.55
2022-08-23T15:59:47.962Z,4.87
2022-08-23T16:02:15.700Z,4.68
2022-08-23T16:04:43.084Z,4.95
2022-08-23T16:07:13.183Z,5.03
2022-08-23T16:09:41.041Z,4.68
2022-08-23T16:12:08.842Z,4.63
2022-08-23T16:14:36.799Z,5.30
2022-08-23T16:17:04.587Z,4.82
2022-08-23T16:19:32.875Z,4.68
2022-08-23T16:22:00.184Z,4.82
2022-08-23T16:24:30.356Z,4.57
2022-08-23T16:26:57.769Z,4.25
2022-08-23T16:29:25.178Z,4.70
2022-08-23T16:31:52.535Z,6.30
2022-08-23T16:34:20.525Z,5.20
2022-08-23T16:36:57.550Z,4.78
2022-08-23T16:39:26.154Z,4.40
2022-08-23T16:41:53.448Z,4.95
2022-08-23T16:44:21.050Z,3.95
2022-08-23T16:46:48.670Z,4.75
2022-08-23T16:49:16.870Z,5.05
2022-08-23T16:51:44.511Z,4.70
2022-08-23T16:54:12.093Z,5.03
2022-08-23T16:56:39.913Z,5.03
2022-08-23T16:59:09.010Z,4.40
2022-08-23T17:01:48.350Z,4.75
2022-08-23T17:04:15.854Z,5.20
2022-08-23T17:06:43.421Z,3.75
2022-08-23T17:09:11.322Z,4.97
2022-08-23T17:11:44.491Z,4.80
2022-08-23T17:14:12.838Z,4.97
2022-08-23T17:16:41.221Z,4.65
2022-08-23T17:19:08.655Z,5.53
2022-08-23T17:21:35.942Z,5.15
2022-08-23T17:24:03.289Z,6.15
2022-08-23T17:26:30.853Z,5.55
2022-08-23T17:28:58.263Z,5.10
2022-08-23T17:31:27.136Z,4.70
2022-08-23T17:33:56.450Z,5.80
2022-08-23T17:36:26.531Z,5.38
2022-08-23T17:38:54.866Z,4.82
2022-08-23T17:41:22.202Z,5.25
2022-08-23T17:43:49.507Z,4.88
2022-08-23T17:46:16.961Z,4.53
2022-08-23T17:48:44.275Z,4.30
2022-08-23T17:51:11.549Z,4.45
2022-08-23T17:53:38.838Z,4.63
2022-08-23T17:56:08.950Z,4.50
2022-08-23T17:58:39.701Z,4.75
2022-08-23T18:01:07.211Z,4.03
2022-08-23T18:03:34.843Z,4.57
2022-08-23T18:06:02.474Z,4.32
2022-08-23T18:08:44.315Z,4.50
2022-08-23T18:11:11.637Z,4.43
2022-08-23T18:13:39.592Z,4.78
2022-08-23T18:16:07.336Z,4.15
2022-08-23T18:18:34.771Z,4.95
2022-08-23T18:21:09.318Z,4.28
2022-08-23T18:23:36.654Z,4.00
2022-08-23T18:26:34.079Z,4.35
2022-08-23T18:29:01.675Z,4.03
2022-08-23T18:31:29.203Z,4.10
2022-08-23T18:34:00.371Z,4.32
2022-08-23T18:36:28.672Z,4.22
2022-08-23T18:38:55.981Z,4.05
2022-08-23T18:41:23.901Z,4.10
2022-08-23T18:43:51.284Z,4.25
2022-08-23T18:46:19.046Z,4.70
2022-08-23T18:48:53.564Z,4.93
2022-08-23T18:51:22.462Z,5.10
2022-08-23T18:53:49.821Z,4.68
2022-08-23T18:56:17.174Z,4.32
2022-08-23T18:58:44.471Z,4.53
2022-08-23T19:01:22.181Z,4.70
2022-08-23T19:03:49.570Z,4.55
2022-08-23T19:06:16.874Z,4.43
2022-08-23T19:08:44.712Z,4.55
2022-08-23T19:11:12.453Z,4.80
2022-08-23T19:13:39.790Z,4.43
2022-08-23T19:16:07.911Z,4.15
2022-08-23T19:18:35.917Z,4.75
2022-08-23T19:21:06.045Z,4.78
2022-08-23T19:23:33.551Z,5.10
2022-08-23T19:26:01.607Z,5.00
2022-08-23T19:28:28.919Z,4.93
2022-08-23T19:30:56.207Z,5.00
2022-08-23T19:33:23.674Z,4.75
2022-08-23T19:35:50.998Z,13.20
2022-08-23T19:38:18.593Z,5.10
2022-08-23T19:40:46.193Z,4.63
2022-08-23T19:43:14.466Z,4.30
2022-08-23T19:45:42.036Z,4.97
2022-08-23T19:48:10.081Z,6.35
2022-08-23T19:50:37.732Z,5.78
2022-08-23T19:53:05.039Z,5.40
2022-08-23T19:55:32.993Z,5.40
2022-08-23T19:58:00.341Z,5.28
2022-08-23T20:00:29.283Z,5.90
2022-08-23T20:02:56.727Z,5.15
2022-08-23T20:05:24.166Z,5.28
2022-08-23T20:07:51.502Z,5.55
2022-08-23T20:10:18.940Z,5.25
2022-08-23T20:12:46.239Z,5.25
2022-08-23T20:15:13.645Z,5.30
2022-08-23T20:17:41.674Z,5.65
2022-08-23T20:20:10.470Z,5.28
2022-08-23T20:22:56.817Z,5.28
2022-08-23T20:25:24.527Z,5.45
2022-08-23T20:27:52.745Z,5.53
2022-08-23T20:30:20.234Z,5.40
2022-08-23T20:32:47.549Z,5.82
2022-08-23T20:35:14.890Z,5.57
2022-08-23T20:37:42.290Z,5.03
2022-08-23T20:40:14.621Z,4.82
2022-08-23T20:42:42.074Z,5.15
2022-08-23T20:45:09.564Z,5.18
2022-08-23T20:47:36.947Z,5.43
2022-08-23T20:50:04.607Z,5.70
2022-08-23T20:52:34.733Z,5.30
2022-08-23T20:55:02.699Z,5.13
2022-08-23T20:57:36.794Z,5.68
2022-08-23T21:00:06.131Z,5.50
2022-08-23T21:02:33.498Z,5.80
2022-08-23T21:05:01.200Z,5.45
2022-08-23T21:07:32.158Z,5.03
2022-08-23T21:09:59.919Z,5.07
2022-08-23T21:12:27.202Z,6.63
2022-08-23T21:14:56.797Z,5.70
2022-08-23T21:17:24.102Z,5.20
2022-08-23T21:19:51.371Z,4.78
2022-08-23T21:22:18.645Z,4.70
2022-08-23T21:24:46.768Z,4.97
2022-08-23T21:27:16.146Z,4.82
2022-08-23T21:29:43.564Z,4.50
2022-08-23T21:32:10.938Z,5.43
2022-08-23T21:34:38.240Z,5.15
2022-08-23T21:37:05.605Z,4.50
2022-08-23T21:39:32.942Z,4.28
2022-08-23T21:42:00.648Z,4.55
2022-08-23T21:44:28.019Z,5.05
2022-08-23T21:46:55.623Z,4.63
2022-08-23T21:49:23.353Z,4.97
2022-08-23T21:51:51.422Z,4.95
2022-08-23T21:54:18.798Z,4.78
2022-08-23T21:56:46.609Z,4.40
2022-08-23T21:59:16.752Z,5.65
2022-08-23T22:01:44.345Z,4.80
2022-08-23T22:04:13.421Z,7.15
2022-08-23T22:06:41.946Z,4.90
2022-08-23T22:09:11.137Z,4.88
2022-08-23T22:11:40.696Z,3.90
2022-08-23T22:14:09.767Z,4.47
2022-08-23T22:16:37.465Z,4.50
2022-08-23T22:19:05.132Z,4.75
2022-08-23T22:21:35.518Z,4.75
2022-08-23T22:24:03.109Z,5.18
2022-08-23T22:26:30.367Z,4.75
2022-08-23T22:28:57.702Z,4.38
2022-08-23T22:31:25.133Z,4.70
2022-08-23T22:33:53.766Z,4.88
2022-08-23T22:36:22.686Z,5.45
2022-08-23T22:38:51.064Z,4.75
2022-08-23T22:41:20.319Z,5.15
2022-08-23T22:43:47.664Z,4.97
2022-08-23T22:46:15.100Z,4.38
2022-08-23T22:48:42.627Z,4.95
2022-08-23T22:51:20.103Z,5.07
2022-08-23T22:53:49.250Z,4.47
2022-08-23T22:56:18.235Z,7.47
2022-08-23T22:58:45.697Z,5.70
2022-08-23T23:01:23.955Z,5.15
2022-08-23T23:03:52.335Z,4.72
2022-08-23T23:06:19.738Z,5.10
2022-08-23T23:08:47.078Z,4.97
2022-08-23T23:11:14.913Z,4.70
2022-08-23T23:13:42.299Z,4.32
2022-08-23T23:16:13.581Z,4.20
2022-08-23T23:18:41.699Z,5.07
2022-08-23T23:21:09.823Z,5.15
2022-08-23T23:23:37.792Z,5.07
2022-08-23T23:26:08.252Z,4.63
2022-08-23T23:28:35.578Z,4.93
2022-08-23T23:31:04.582Z,4.60
2022-08-23T23:33:31.921Z,5.20
2022-08-23T23:35:59.692Z,4.82
2022-08-23T23:38:26.993Z,4.60
2022-08-23T23:40:54.272Z,5.07
2022-08-23T23:43:21.591Z,4.50
2022-08-23T23:45:48.983Z,5.30
2022-08-23T23:48:16.530Z,4.93
2022-08-23T23:50:45.237Z,4.80
2022-08-23T23:53:14.558Z,4.82
2022-08-23T23:55:42.104Z,5.38
2022-08-23T23:58:10.262Z,4.95
